• Join FlightAware (Why Join?)
  • Login
  • US Flag 
08:01PM EDT


 

Airport Tracker/Info


-or-


 

Live Flight TrackerFlight Track Log ✈ CTL71 ✈ 24-Jul-2013 ✈ KBHM - KBUY

Flight Track Log - Related Links

Times and Time Zones

All times are in EDT time to prevent confusion due to time zone crossing. See the CTL71 flight status page for this flight to view local times or setup timezone preferences in your user account.

Time Position Orientation Groundspeed Altitude Reporting Facility
EDT Latitude Longitude Course Direction KTS MPH feet Rate Location/Type
09:35AM 33.5683 -86.7489 57° Northeast 113 130 1,100  Level Atlanta Center
09:36AM 33.5792 -86.7292 57° Northeast 119 137 1,500 840 Climbing Atlanta Center
09:37AM 33.6050 -86.6950 48° Northeast 147 169 2,400 780 Climbing Atlanta Center
09:38AM 33.6286 -86.6583 52° Northeast 137 158 3,100 720 Climbing Atlanta Center
09:39AM 33.6503 -86.6217 55° Northeast 137 158 3,900 780 Climbing Atlanta Center
09:40AM 33.6761 -86.5800 53° Northeast 139 160 4,700 600 Climbing Atlanta Center
09:41AM 33.7022 -86.5358 55° Northeast 147 169 5,200 480 Climbing Atlanta Center
09:42AM 33.7281 -86.4992 50° Northeast 147 169 5,800 540 Climbing Atlanta Center
09:43AM 33.7475 -86.4572 61° Northeast 147 169 6,300 480 Climbing Atlanta Center
09:44AM 33.7714 -86.4153 56° Northeast 147 169 6,800 420 Climbing Atlanta Center
09:45AM 33.7953 -86.3711 57° Northeast 147 169 7,200 420 Climbing Atlanta Center
09:46AM 33.8167 -86.3342 55° Northeast 147 169 7,700 480 Climbing Atlanta Center
09:47AM 33.8406 -86.2922 56° Northeast 147 169 8,200 420 Climbing Atlanta Center
09:48AM 33.8661 -86.2503 54° Northeast 147 169 8,600 360 Climbing Atlanta Center
09:49AM 33.8878 -86.2133 55° Northeast 147 169 9,000 180 Climbing Atlanta Center
09:50AM 33.9114 -86.1689 57° Northeast 147 169 9,000  Level Atlanta Center
09:51AM 33.9372 -86.1219 56° Northeast 152 175 9,000  Level Atlanta Center
09:52AM 33.9592 -86.0725 62° Northeast 157 181 9,000  Level Atlanta Center
09:53AM 33.9850 -86.0206 59° Northeast 163 188 9,000  Level Atlanta Center
09:54AM 34.0025 -85.9708 67° East 163 188 9,000  Level Atlanta Center
09:55AM 34.0242 -85.9186 63° Northeast 163 188 9,000  Level Atlanta Center
09:56AM 34.0436 -85.8664 66° East 163 188 9,100  Climbing Atlanta Center
09:57AM 34.0675 -85.8142 61° Northeast 163 188 9,000 -60 Descending Atlanta Center
09:58AM 34.0911 -85.7644 60° Northeast 163 188 9,000  Level Atlanta Center
09:59AM 34.1128 -85.7122 63° Northeast 168 193 9,000  Level Atlanta Center
10:00AM 34.1342 -85.6600 64° Northeast 168 193 9,100  Climbing Atlanta Center
10:01AM 34.1494 -85.6103 70° East 168 193 9,000 -60 Descending Atlanta Center
10:02AM 34.1772 -85.5553 59° Northeast 173 199 9,000  Level Atlanta Center
10:03AM 34.1967 -85.5031 66° East 173 199 9,000  Level Atlanta Center
10:04AM 34.2161 -85.4531 65° Northeast 173 199 9,000  Level Atlanta Center
10:05AM 34.2397 -85.4058 59° Northeast 167 192 9,000  Level Atlanta Center
10:06AM 34.2589 -85.3533 66° East 167 192 9,000  Level Atlanta Center
10:07AM 34.2803 -85.2983 65° Northeast 172 198 9,000  Level Atlanta Center
10:08AM 34.2997 -85.2508 64° Northeast 167 192 9,000  Level Atlanta Center
10:09AM 34.3231 -85.1958 63° Northeast 167 192 9,000  Level Atlanta Center
10:10AM 34.3403 -85.1458 67° East 167 192 9,000  Level Atlanta Center
10:11AM 34.3617 -85.0831 68° East 173 199 9,000  Level Atlanta Center
10:12AM 34.3831 -85.0331 63° Northeast 168 193 9,000  Level Atlanta Center
10:13AM 34.4064 -84.9778 63° Northeast 173 199 9,100  Climbing Atlanta Center
10:14AM 34.4256 -84.9278 65° Northeast 173 199 9,100 -60 Level Atlanta Center
10:15AM 34.4467 -84.8750 64° Northeast 173 199 9,000 -60 Descending Atlanta Center
10:16AM 34.4700 -84.8225 62° Northeast 173 199 9,000  Level Atlanta Center
10:17AM 34.4914 -84.7697 64° Northeast 173 199 9,000  Level Atlanta Center
10:18AM 34.5103 -84.7169 67° East 167 192 9,000  Level Atlanta Center
10:19AM 34.5272 -84.6717 66° East 172 198 9,000  Level Atlanta Center
10:20AM 34.5483 -84.6189 64° Northeast 172 198 9,000  Level Atlanta Center
10:21AM 34.5694 -84.5661 64° Northeast 172 198 9,000  Level Atlanta Center
10:22AM 34.5906 -84.5156 63° Northeast 172 198 9,000  Level Atlanta Center
10:23AM 34.6075 -84.4603 70° East 172 198 9,000  Level Atlanta Center
10:24AM 34.6306 -84.4075 62° Northeast 172 198 9,000  Level Atlanta Center
10:25AM 34.6517 -84.3494 66° East 172 198 9,000  Level Atlanta Center
10:26AM 34.6728 -84.2939 65° Northeast 172 198 9,100  Climbing Atlanta Center
10:27AM 34.6914 -84.2433 66° East 172 198 9,000 -60 Descending Atlanta Center
10:28AM 34.7125 -84.1953 62° Northeast 172 198 9,000  Level Atlanta Center
10:29AM 34.7314 -84.1450 65° Northeast 166 191 9,100  Climbing Atlanta Center
10:30AM 34.7542 -84.0969 60° Northeast 161 185 9,000  Descending Atlanta Center
10:31AM 34.7794 -84.0489 57° Northeast 156 180 9,100  Climbing Atlanta Center
10:32AM 34.7981 -83.9933 68° East 162 186 9,000 -60 Descending Atlanta Center
10:33AM 34.8169 -83.9400 67° East 162 186 9,000  Level Atlanta Center
10:34AM 34.8397 -83.8894 61° Northeast 162 186 9,100 -60 Climbing Atlanta Center
10:35AM 34.8564 -83.8389 68° East 174 200 8,900 -120 Descending Atlanta Center
10:36AM 34.8750 -83.7856 67° East 168 193 8,900  Level Atlanta Center
10:37AM 34.8917 -83.7297 70° East 168 193 8,900  Level Atlanta Center
10:38AM 34.9103 -83.6792 66° East 168 193 9,000  Climbing Atlanta Center
10:39AM 34.9269 -83.6333 66° East 168 193 9,000  Level Atlanta Center
10:40AM 34.9494 -83.5775 64° Northeast 158 182 9,100  Climbing Atlanta Center
10:41AM 34.9681 -83.5267 66° East 158 182 9,000 -60 Descending Atlanta Center
10:42AM 34.9847 -83.4786 67° East 158 182 9,000  Level Atlanta Center
10:43AM 35.0031 -83.4278 66° East 158 182 9,100  Climbing Atlanta Center
10:44AM 35.0258 -83.3667 66° East 166 191 9,000  Descending Atlanta Center
10:45AM 35.0403 -83.3208 69° East 166 191 9,100  Climbing Atlanta Center
10:46AM 35.0628 -83.2672 63° Northeast 166 191 9,100  Level Atlanta Center
10:47AM 35.0833 -83.2114 66° East 166 191 9,100  Level Atlanta Center
10:48AM 35.1017 -83.1628 65° Northeast 171 197 9,100 -60 Level Atlanta Center
10:49AM 35.1222 -83.1094 65° Northeast 171 197 9,000  Descending Atlanta Center
10:50AM 35.1425 -83.0508 67° East 177 204 9,100  Climbing Atlanta Center
10:51AM 35.1611 -82.9997 66° East 172 198 9,100  Level Atlanta Center
10:52AM 35.1814 -82.9436 66° East 173 199 9,100 -60 Level Atlanta Center
10:53AM 35.2039 -82.8950 60° Northeast 173 199 9,000  Descending Atlanta Center
10:54AM 35.2242 -82.8361 67° East 180 207 9,100  Climbing Atlanta Center
10:55AM 35.2444 -82.7800 66° East 175 201 9,100 -60 Level Atlanta Center
10:56AM 35.2628 -82.7314 65° Northeast 175 201 9,000 -60 Descending Atlanta Center
10:57AM 35.2872 -82.6725 63° Northeast 175 201 9,000  Level Atlanta Center
10:58AM 35.3075 -82.6186 65° Northeast 164 189 9,100  Climbing Atlanta Center
10:59AM 35.3297 -82.5672 62° Northeast 175 201 9,100 -60 Level Atlanta Center
11:00AM 35.3458 -82.5136 70° East 175 201 9,000 -60 Descending Atlanta Center
11:01AM 35.3639 -82.4597 68° East 175 201 9,000  Level Atlanta Center
11:02AM 35.3839 -82.4058 66° East 169 194 9,100  Climbing Atlanta Center
11:03AM 35.4000 -82.3519 70° East 169 194 9,100 -60 Level Atlanta Center
11:04AM 35.4181 -82.2956 69° East 170 196 9,000  Descending Atlanta Center
11:05AM 35.4422 -82.2339 64° Northeast 171 197 9,100  Climbing Atlanta Center
11:06AM 35.4603 -82.1850 66° East 176 203 9,000  Descending Atlanta Center
11:07AM 35.4822 -82.1336 62° Northeast 176 203 9,100  Climbing Atlanta Center
11:08AM 35.5025 -82.0822 64° Northeast 176 203 9,100  Level Atlanta Center
11:09AM 35.5203 -82.0281 68° East 176 203 9,100  Level Atlanta Center
11:10AM 35.5339 -81.9717 73° East 171 197 9,100 -60 Level Atlanta Center
11:11AM 35.5497 -81.9125 72° East 171 197 9,000 -60 Descending Atlanta Center
11:12AM 35.5633 -81.8586 73° East 166 191 9,000  Level Atlanta Center
11:13AM 35.5831 -81.8044 66° East 166 191 9,000 -60 Level Atlanta Center
11:14AM 35.5989 -81.7553 68° East 173 199 8,900  Descending Atlanta Center
11:15AM 35.6147 -81.6989 71° East 173 199 9,000  Climbing Atlanta Center
11:16AM 35.6322 -81.6419 69° East 173 199 9,000  Level Atlanta Center
11:17AM 35.6500 -81.5853 69° East 173 199 9,000  Level Atlanta Center
11:18AM 35.6675 -81.5286 69° East 173 199 9,000  Level Atlanta Center
11:19AM 35.6872 -81.4692 68° East 173 199 9,000  Level Atlanta Center
11:20AM 35.7069 -81.4122 67° East 173 199 9,000  Level Atlanta Center
11:21AM 35.7286 -81.3603 63° Northeast 173 199 9,000  Level Atlanta Center
11:22AM 35.7461 -81.3011 70° East 173 199 9,000  Level Atlanta Center
11:23AM 35.7575 -81.2444 76° East 167 192 9,000  Level Atlanta Center
11:24AM 35.7686 -81.1903 76° East 167 192 9,000  Level Atlanta Center
11:25AM 35.7778 -81.1311 79° East 167 192 9,000  Level Atlanta Center
11:26AM 35.7847 -81.0719 82° East 167 192 9,000  Level Atlanta Center
11:27AM 35.7956 -81.0125 77° East 167 192 9,000  Level Atlanta Center
11:28AM 35.8067 -80.9533 77° East 167 192 9,000  Level Atlanta Center
11:29AM 35.8197 -80.8889 76° East 167 192 9,000  Level Atlanta Center
11:30AM 35.8286 -80.8294 80° East 174 200 9,000 -60 Level Atlanta Center
11:31AM 35.8417 -80.7700 75° East 174 200 8,900 -60 Descending Atlanta Center
11:32AM 35.8506 -80.7108 79° East 174 200 8,900  Level Atlanta Center
11:33AM 35.8614 -80.6539 77° East 174 200 8,900  Level Atlanta Center
11:34AM 35.8700 -80.5922 80° East 174 200 9,000  Climbing Atlanta Center
11:35AM 35.8789 -80.5303 80° East 179 206 8,900  Descending Atlanta Center
11:36AM 35.8875 -80.4736 79° East 179 206 9,000  Climbing Atlanta Center
11:37AM 35.8983 -80.4114 78° East 179 206 9,000  Level Atlanta Center
11:38AM 35.9092 -80.3572 76° East 179 206 9,000  Level Atlanta Center
11:39AM 35.9178 -80.2978 80° East 179 206 9,000 -120 Level Atlanta Center
11:40AM 35.9281 -80.2256 80° East 184 212 8,800 -240 Descending Atlanta Center
11:42AM 35.9178 -80.1278 97° East  Level FlightAware Approximate
11:49AM 35.9927 -79.7337 77° East  Level FlightAware Approximate
11:50AM 36.0032 -79.6778 77° East  Level FlightAware Approximate
11:51AM 36.0137 -79.6218 77° East  Level FlightAware Approximate
11:52AM 36.0242 -79.5658 77° East  Level FlightAware Approximate
11:53AM 36.0333 -79.5096 90° East  Level FlightAware Approximate